Aeroporto :
LOGIN :

Iscrizione | Disclaimer

   EN    FR    IT 

 










Sommario :    VFR   VFR Marginale   IFR   IFR Intensivo   IFR Molto Intensivo
Visibilità : 
Base nubi : 
>= 8 km
>= 3000ft
5 / 8 km
1000 / 3000 ft
1500m / 5 km
500 / 1000 ft
800 / 1500m
200 / 500 ft
< 800m
< 200 ft
Simboli :   Temporali  Nebbia  Neve Forte  Precipitazioni Forti  Vento > 20 kt
SIGMETs :   Varie  Temporali  Ghiacco  Turbolenza  Onda orograficha  Ceneri Vulcaniche






- Altitudine del aeroporto : 1299 ft


EDTY - Adolf Würth

ULTIMO METAR :
  • 061850Z AUTO 23004KT 9999 // BKN150/// OVC170/// 04/M00 Q1014

METARs OBSOLETI :
  • 061820Z 23005KT CAVOK 04/M00 Q1014
  • 061750Z 21003KT CAVOK 04/M01 Q1014
  • 061720Z 24003KT CAVOK 03/M01 Q1014
  • 061650Z 22004KT CAVOK 04/M01 Q1014
  • 061620Z 21003KT 140V260 CAVOK 06/M01 Q1014

TAF TAF EDTY
Valido dal 06 a 18 ore il 07 a 03 ore UTC


061700Z 0618/0703 22005KT CAVOK
BECMG 0622/0624 24012KT
TEMPO 0700/0703 26015G25KT 4000 RA BKN012



MetMap, La meteo Aeronautica in un colpo d'occhio ! - Copyright ORBIFLY Dicembre 2007 - Disclaimer

ORBIFLY MET'MAP TEAM :

Programmazione e sviluppo : Alexandra Zaïnal
Concezione : Baudouin d'Aumeries
Aiuto per la programmazione : Marc-Olivier Méhu
Supporto tecnico e logistico : Manuel Goepfert
Aiuto per la traduzione : Arnaldo La Scala

Contatto : metmap@orbifly.com




FONTI E CREDITI :

   NOAA